Time;durP1;ratioP1;P1;durP2;ratioP2;P2;SDS_P1;SDS_P2;PMS_P1;PMS_P2;Temp;Humidity;BMP_temperature;BMP_pressure;BME280_temperature;BME280_humidity;BME280_pressure;Samples;Min_cycle;Max_cycle;Signal;HPM_P1;HPM_P2
2023/10/13 00:00:40;;;;;;;4.07;3.00;;;;;;;;;;4957174;28;20028;-86
2023/10/13 00:03:06;;;;;;;5.80;2.60;;;;;;;;;;4953946;28;20397;-86
2023/10/13 00:05:33;;;;;;;8.82;3.05;;;;;;;;;;4954414;28;20077;-86
2023/10/13 00:08:00;;;;;;;5.15;3.20;;;;;;;;;;4945049;28;20370;-86
2023/10/13 00:10:30;;;;;;;9.98;3.00;;;;;;;;;;4954702;28;20058;-85
2023/10/13 00:13:11;;;;;;;7.80;3.13;;;;;;;;;;4949923;28;20482;-87
2023/10/13 00:18:27;;;;;;;4.80;3.17;;;;;;;;;;4955320;28;20106;-87
2023/10/13 00:20:56;;;;;;;7.03;3.03;;;;;;;;;;4942885;28;20031;-86
2023/10/13 00:23:22;;;;;;;4.55;3.15;;;;;;;;;;4955672;28;20087;-86
2023/10/13 00:25:56;;;;;;;6.03;3.10;;;;;;;;;;4947332;28;20083;-87
2023/10/13 00:28:24;;;;;;;6.88;3.15;;;;;;;;;;4957411;28;20039;-88
2023/10/13 00:30:59;;;;;;;5.57;3.00;;;;;;;;;;4956157;28;20058;-87
2023/10/13 00:33:25;;;;;;;6.75;3.17;;;;;;;;;;4955804;28;20066;-87
2023/10/13 00:35:53;;;;;;;5.22;3.28;;;;;;;;;;4955132;28;20032;-86
2023/10/13 00:38:19;;;;;;;8.50;2.80;;;;;;;;;;4962877;28;20130;-86
2023/10/13 00:40:51;;;;;;;4.28;2.50;;;;;;;;;;4952692;28;20468;-86
2023/10/13 00:45:57;;;;;;;4.95;2.65;;;;;;;;;;4952599;28;20035;-86
2023/10/13 00:48:33;;;;;;;6.20;2.83;;;;;;;;;;4943326;28;20020;-86
2023/10/13 00:51:06;;;;;;;8.07;2.80;;;;;;;;;;4952307;28;20030;-86
2023/10/13 00:53:44;;;;;;;8.23;3.10;;;;;;;;;;4954803;28;20023;-86
2023/10/13 00:56:18;;;;;;;5.05;2.65;;;;;;;;;;4953971;28;20023;-86
2023/10/13 00:58:46;;;;;;;6.38;2.92;;;;;;;;;;4962352;28;20031;-86
2023/10/13 01:01:17;;;;;;;7.82;2.88;;;;;;;;;;4957167;28;20065;-86
2023/10/13 01:03:48;;;;;;;5.00;3.17;;;;;;;;;;4953794;28;20188;-86
2023/10/13 01:06:16;;;;;;;7.10;3.33;;;;;;;;;;4953520;28;20024;-85
2023/10/13 01:08:44;;;;;;;3.75;2.80;;;;;;;;;;4946826;28;20079;-85
2023/10/13 01:11:10;;;;;;;8.05;3.20;;;;;;;;;;4957336;28;20032;-86
2023/10/13 01:13:41;;;;;;;5.20;2.78;;;;;;;;;;4963731;28;20085;-86
2023/10/13 01:16:07;;;;;;;4.20;2.73;;;;;;;;;;4943574;28;20031;-85
2023/10/13 01:18:39;;;;;;;6.13;3.13;;;;;;;;;;4952228;28;20753;-87
2023/10/13 01:21:05;;;;;;;5.88;3.00;;;;;;;;;;4956935;28;20031;-86
2023/10/13 01:23:37;;;;;;;4.88;2.50;;;;;;;;;;4956322;28;20027;-87
2023/10/13 01:26:05;;;;;;;6.25;3.22;;;;;;;;;;4972141;28;20121;-86
2023/10/13 01:28:32;;;;;;;5.43;2.90;;;;;;;;;;4956308;28;20020;-86
2023/10/13 01:30:57;;;;;;;5.00;2.47;;;;;;;;;;4948155;28;20163;-86
2023/10/13 01:33:26;;;;;;;3.67;2.35;;;;;;;;;;4957268;28;20114;-86
2023/10/13 01:35:55;;;;;;;4.82;2.50;;;;;;;;;;4942591;28;20039;-86
2023/10/13 01:38:20;;;;;;;6.53;2.50;;;;;;;;;;4957801;28;20031;-86
2023/10/13 01:40:51;;;;;;;8.60;2.80;;;;;;;;;;4949669;28;20031;-86
2023/10/13 01:43:17;;;;;;;5.40;2.60;;;;;;;;;;4943636;29;20037;-86
2023/10/13 01:45:49;;;;;;;4.95;2.78;;;;;;;;;;4950326;28;20535;-86
2023/10/13 01:48:21;;;;;;;5.03;2.88;;;;;;;;;;4948698;28;20040;-86
2023/10/13 01:50:56;;;;;;;5.07;2.67;;;;;;;;;;4946600;28;20082;-86
2023/10/13 01:53:23;;;;;;;4.47;2.63;;;;;;;;;;4949170;28;20073;-86
2023/10/13 01:55:50;;;;;;;4.30;2.67;;;;;;;;;;4953740;28;20629;-86
2023/10/13 01:58:16;;;;;;;3.83;2.67;;;;;;;;;;4938693;29;20034;-86
2023/10/13 02:00:47;;;;;;;4.65;2.78;;;;;;;;;;4968739;28;20038;-86
2023/10/13 02:03:16;;;;;;;5.10;3.10;;;;;;;;;;4960189;28;20031;-86
2023/10/13 02:05:49;;;;;;;4.55;2.97;;;;;;;;;;4954201;28;20034;-85
2023/10/13 02:08:33;;;;;;;6.43;2.50;;;;;;;;;;4980176;28;20027;-87
2023/10/13 02:11:01;;;;;;;5.20;3.10;;;;;;;;;;4973629;28;20015;-86
2023/10/13 02:13:26;;;;;;;5.43;3.00;;;;;;;;;;4970243;28;20031;-87
2023/10/13 02:15:57;;;;;;;5.32;3.20;;;;;;;;;;4969175;28;20026;-86
2023/10/13 02:18:26;;;;;;;3.45;2.35;;;;;;;;;;4960674;28;20027;-87
2023/10/13 02:21:04;;;;;;;5.88;2.88;;;;;;;;;;4953959;28;20027;-86
2023/10/13 02:23:30;;;;;;;2.58;1.90;;;;;;;;;;4953774;28;20062;-86
2023/10/13 02:26:03;;;;;;;2.95;2.20;;;;;;;;;;4943281;28;20019;-86
2023/10/13 02:28:33;;;;;;;3.28;2.20;;;;;;;;;;4955654;29;20047;-85
2023/10/13 02:31:03;;;;;;;5.32;1.67;;;;;;;;;;4946747;28;20095;-87
2023/10/13 02:33:29;;;;;;;2.53;1.58;;;;;;;;;;4959284;28;20106;-85
2023/10/13 02:35:59;;;;;;;3.05;1.88;;;;;;;;;;4956082;28;20429;-87
2023/10/13 02:38:34;;;;;;;2.00;1.52;;;;;;;;;;4951598;28;20116;-86
2023/10/13 02:41:05;;;;;;;4.30;2.03;;;;;;;;;;4969569;28;20039;-87
2023/10/13 02:43:34;;;;;;;4.57;2.08;;;;;;;;;;4955521;28;20023;-86
2023/10/13 02:46:01;;;;;;;3.70;2.00;;;;;;;;;;4954431;28;20086;-86
2023/10/13 02:48:30;;;;;;;4.00;1.65;;;;;;;;;;4955486;28;20023;-86
2023/10/13 02:51:01;;;;;;;5.60;1.88;;;;;;;;;;4953737;28;20023;-87
2023/10/13 02:53:28;;;;;;;2.00;1.50;;;;;;;;;;4948433;28;20023;-87
2023/10/13 02:56:05;;;;;;;4.35;2.15;;;;;;;;;;4968736;28;20051;-87
2023/10/13 02:58:45;;;;;;;5.90;1.67;;;;;;;;;;4952931;28;20389;-87
2023/10/13 03:01:17;;;;;;;4.20;1.52;;;;;;;;;;4957021;28;20043;-86
2023/10/13 03:03:51;;;;;;;6.30;1.95;;;;;;;;;;4955897;28;20508;-86
2023/10/13 03:06:21;;;;;;;3.53;1.42;;;;;;;;;;4954919;28;20027;-87
2023/10/13 03:08:47;;;;;;;6.05;2.47;;;;;;;;;;4967904;28;20445;-87
2023/10/13 03:11:13;;;;;;;3.45;2.17;;;;;;;;;;4954414;28;20525;-86
2023/10/13 03:13:44;;;;;;;5.47;2.08;;;;;;;;;;4967531;28;20114;-87
2023/10/13 03:16:16;;;;;;;4.32;1.90;;;;;;;;;;4970616;28;20023;-86
2023/10/13 03:18:51;;;;;;;2.80;1.88;;;;;;;;;;4951361;28;20227;-86
2023/10/13 03:21:28;;;;;;;2.50;1.80;;;;;;;;;;4947517;29;20665;-87
2023/10/13 03:24:06;;;;;;;2.92;1.98;;;;;;;;;;4956669;28;20031;-86
2023/10/13 03:26:36;;;;;;;4.43;2.00;;;;;;;;;;4970912;28;20118;-87
2023/10/13 03:29:07;;;;;;;2.03;1.85;;;;;;;;;;4956360;28;20042;-87
2023/10/13 03:31:36;;;;;;;3.72;2.00;;;;;;;;;;4965630;28;20031;-87
2023/10/13 03:34:06;;;;;;;7.53;2.75;;;;;;;;;;4941069;28;20058;-87
2023/10/13 03:39:18;;;;;;;2.47;1.60;;;;;;;;;;4956211;29;20123;-86
2023/10/13 03:41:45;;;;;;;2.80;1.88;;;;;;;;;;4970328;28;20113;-86
2023/10/13 03:44:17;;;;;;;4.40;1.98;;;;;;;;;;4949448;28;20022;-87
2023/10/13 03:46:42;;;;;;;6.93;1.90;;;;;;;;;;4950758;28;20043;-86
2023/10/13 03:49:12;;;;;;;3.00;1.63;;;;;;;;;;4946652;28;20039;-87
2023/10/13 03:51:39;;;;;;;5.75;2.08;;;;;;;;;;4959447;28;20027;-86
2023/10/13 03:54:07;;;;;;;4.40;2.20;;;;;;;;;;4958886;28;20027;-86
2023/10/13 03:56:38;;;;;;;5.53;2.00;;;;;;;;;;4962010;28;20448;-86
2023/10/13 03:59:18;;;;;;;3.90;2.10;;;;;;;;;;4957994;28;20051;-87
2023/10/13 04:15:14;;;;;;;5.15;1.77;;;;;;;;;;4944545;29;20159;-86
2023/10/13 04:17:40;;;;;;;3.60;2.08;;;;;;;;;;4949370;28;20169;-86
2023/10/13 04:25:35;;;;;;;11.18;1.90;;;;;;;;;;4955559;28;20047;-86
2023/10/13 04:30:59;;;;;;;6.70;2.08;;;;;;;;;;4957201;28;20127;-86
2023/10/13 04:41:42;;;;;;;3.47;1.83;;;;;;;;;;4951621;28;20114;-87
2023/10/13 04:44:48;;;;;;;2.47;2.13;;;;;;;;;;4970048;28;20027;-86
2023/10/13 04:47:16;;;;;;;1.98;1.70;;;;;;;;;;4959254;28;20034;-87
2023/10/13 04:52:26;;;;;;;5.00;2.15;;;;;;;;;;4946168;28;20038;-87
2023/10/13 04:54:54;;;;;;;6.80;2.22;;;;;;;;;;4947690;28;20115;-86
2023/10/13 05:06:10;;;;;;;4.25;2.13;;;;;;;;;;4950037;28;20085;-85
2023/10/13 05:44:39;;;;;;;3.65;2.25;;;;;;;;;;4946759;29;20565;-84
2023/10/13 05:50:04;;;;;;;2.95;2.10;;;;;;;;;;4957540;29;20034;-86
2023/10/13 06:31:01;;;;;;;4.13;2.75;;;;;;;;;;4947831;29;20109;-85
2023/10/13 06:33:28;;;;;;;6.25;1.95;;;;;;;;;;4951772;28;20027;-85
2023/10/13 06:35:57;;;;;;;4.13;2.33;;;;;;;;;;4952868;28;20420;-85
2023/10/13 06:38:23;;;;;;;4.45;2.47;;;;;;;;;;4952401;28;20532;-86
2023/10/13 06:40:50;;;;;;;6.85;2.58;;;;;;;;;;4962359;29;20118;-86
2023/10/13 06:43:17;;;;;;;4.72;2.05;;;;;;;;;;4943692;28;20052;-86
2023/10/13 06:46:00;;;;;;;7.50;2.35;;;;;;;;;;4954688;28;20031;-86
2023/10/13 06:48:26;;;;;;;6.47;2.60;;;;;;;;;;4946946;28;20028;-85
2023/10/13 06:50:55;;;;;;;6.93;2.35;;;;;;;;;;4974443;28;20069;-86
2023/10/13 06:53:21;;;;;;;5.35;2.38;;;;;;;;;;4950940;28;20119;-85
2023/10/13 06:55:49;;;;;;;4.45;2.63;;;;;;;;;;4959489;28;20127;-85
2023/10/13 06:58:16;;;;;;;4.00;2.50;;;;;;;;;;4975198;28;20565;-84
2023/10/13 07:00:52;;;;;;;7.50;2.60;;;;;;;;;;4961200;28;20485;-85
2023/10/13 07:03:18;;;;;;;6.35;2.38;;;;;;;;;;4950471;29;20079;-85
2023/10/13 07:05:44;;;;;;;5.60;2.35;;;;;;;;;;4969844;28;20020;-87
2023/10/13 07:08:14;;;;;;;4.38;2.40;;;;;;;;;;4952714;29;20131;-85
2023/10/13 07:11:02;;;;;;;9.80;2.85;;;;;;;;;;4961309;28;20023;-86
2023/10/13 07:13:31;;;;;;;7.20;2.42;;;;;;;;;;4971042;28;20019;-85
2023/10/13 07:16:08;;;;;;;9.38;2.65;;;;;;;;;;4959024;28;20034;-86
2023/10/13 07:18:41;;;;;;;6.93;2.25;;;;;;;;;;4965367;28;20023;-86
2023/10/13 07:21:11;;;;;;;4.63;2.25;;;;;;;;;;4957094;28;20095;-86
2023/10/13 07:23:37;;;;;;;5.13;2.47;;;;;;;;;;4958777;28;20035;-90
2023/10/13 07:26:06;;;;;;;4.38;2.80;;;;;;;;;;4953239;28;20036;-86
2023/10/13 07:28:35;;;;;;;8.63;3.05;;;;;;;;;;4970498;28;20034;-85
2023/10/13 07:33:27;;;;;;;5.80;2.70;;;;;;;;;;4957882;28;20042;-86
2023/10/13 07:36:18;;;;;;;8.68;3.08;;;;;;;;;;4973099;28;20027;-88
2023/10/13 07:38:59;;;;;;;8.70;2.50;;;;;;;;;;4955847;28;20042;-85
2023/10/13 07:41:30;;;;;;;5.22;2.10;;;;;;;;;;4957524;28;20497;-85
2023/10/13 07:43:57;;;;;;;7.32;2.60;;;;;;;;;;4955456;28;20413;-87
2023/10/13 07:46:29;;;;;;;4.88;2.55;;;;;;;;;;4952559;28;20401;-86
2023/10/13 07:49:08;;;;;;;9.73;2.50;;;;;;;;;;4947531;28;20083;-85
2023/10/13 07:51:40;;;;;;;5.80;2.80;;;;;;;;;;4954551;28;20034;-85
2023/10/13 07:54:11;;;;;;;7.85;2.55;;;;;;;;;;4956417;28;20031;-85
2023/10/13 07:56:39;;;;;;;3.73;2.53;;;;;;;;;;4955844;28;20090;-86
2023/10/13 07:59:06;;;;;;;8.10;2.72;;;;;;;;;;4952893;28;20040;-85
2023/10/13 08:01:32;;;;;;;5.03;2.40;;;;;;;;;;4971311;28;20023;-85
2023/10/13 08:04:14;;;;;;;3.78;2.40;;;;;;;;;;4969283;29;20035;-85
2023/10/13 08:06:40;;;;;;;9.20;2.42;;;;;;;;;;4949117;29;20486;-87
2023/10/13 08:09:09;;;;;;;8.40;2.38;;;;;;;;;;4955488;28;20510;-85
2023/10/13 08:11:37;;;;;;;4.68;2.35;;;;;;;;;;4950931;28;20078;-87
2023/10/13 08:16:54;;;;;;;3.65;2.20;;;;;;;;;;4958377;28;20030;-86
2023/10/13 08:19:28;;;;;;;4.32;2.00;;;;;;;;;;4958112;28;20481;-85
2023/10/13 08:22:23;;;;;;;4.45;2.00;;;;;;;;;;4955537;28;20676;-86
2023/10/13 08:45:08;;;;;;;2.78;1.95;;;;;;;;;;4967652;28;20026;-86
2023/10/13 08:47:36;;;;;;;3.40;1.95;;;;;;;;;;4963288;28;20055;-86
2023/10/13 08:50:47;;;;;;;2.72;1.65;;;;;;;;;;4960111;28;20027;-86
2023/10/13 08:52:49;;;;;;;4.32;1.98;;;;;;;;;;4951376;28;20031;-86
2023/10/13 08:58:12;;;;;;;3.40;1.83;;;;;;;;;;4947848;28;20058;-85
2023/10/13 09:01:11;;;;;;;7.65;1.70;;;;;;;;;;4952456;28;20049;-86
2023/10/13 09:03:40;;;;;;;3.55;1.60;;;;;;;;;;4965009;28;20109;-87
2023/10/13 09:06:14;;;;;;;4.22;1.73;;;;;;;;;;4954203;28;20023;-86
2023/10/13 09:11:27;;;;;;;5.15;1.60;;;;;;;;;;4952396;29;20045;-86
2023/10/13 09:14:03;;;;;;;4.43;1.70;;;;;;;;;;4955467;29;20470;-86
2023/10/13 09:19:06;;;;;;;3.85;1.70;;;;;;;;;;4942837;28;20482;-86
2023/10/13 09:24:29;;;;;;;2.90;1.70;;;;;;;;;;4957309;28;20039;-86
2023/10/13 09:27:01;;;;;;;3.72;1.95;;;;;;;;;;4959128;28;20389;-85
2023/10/13 09:30:18;;;;;;;2.92;2.10;;;;;;;;;;4972778;28;20466;-86
2023/10/13 09:32:48;;;;;;;2.90;1.85;;;;;;;;;;4944482;28;20039;-86
2023/10/13 09:35:25;;;;;;;2.83;1.70;;;;;;;;;;4956598;28;20670;-85
2023/10/13 09:37:51;;;;;;;8.98;2.83;;;;;;;;;;4951694;29;20185;-86
2023/10/13 09:40:33;;;;;;;2.60;1.95;;;;;;;;;;4951695;28;20027;-87
2023/10/13 09:43:05;;;;;;;5.78;1.77;;;;;;;;;;4949694;29;20030;-85
2023/10/13 09:45:43;;;;;;;3.80;1.95;;;;;;;;;;4953880;28;20386;-86
2023/10/13 09:48:26;;;;;;;3.53;2.00;;;;;;;;;;4953674;28;20464;-85
2023/10/13 09:50:57;;;;;;;4.57;1.75;;;;;;;;;;4952840;28;20531;-85
2023/10/13 09:53:23;;;;;;;5.43;2.35;;;;;;;;;;4952669;28;20473;-87
2023/10/13 09:56:00;;;;;;;2.50;1.73;;;;;;;;;;4954196;28;20034;-86
2023/10/13 09:58:36;;;;;;;2.42;1.52;;;;;;;;;;4941413;28;20034;-86
2023/10/13 10:01:09;;;;;;;3.00;1.80;;;;;;;;;;4953482;28;20027;-85
2023/10/13 10:06:38;;;;;;;3.95;1.80;;;;;;;;;;4958885;28;20087;-86
2023/10/13 10:09:12;;;;;;;6.40;2.28;;;;;;;;;;4962157;28;20023;-85
2023/10/13 10:11:55;;;;;;;2.88;1.80;;;;;;;;;;4970344;28;20051;-85
2023/10/13 10:14:44;;;;;;;2.80;1.63;;;;;;;;;;4968073;28;20020;-84
2023/10/13 10:17:10;;;;;;;3.88;1.50;;;;;;;;;;4975533;28;20023;-85
2023/10/13 10:19:56;;;;;;;3.88;1.92;;;;;;;;;;4955490;28;20058;-86
2023/10/13 10:22:36;;;;;;;5.28;1.70;;;;;;;;;;4964854;28;20023;-85
2023/10/13 10:25:03;;;;;;;3.10;1.67;;;;;;;;;;4953551;28;20024;-85
2023/10/13 10:27:30;;;;;;;3.08;1.67;;;;;;;;;;4960429;28;20057;-85
2023/10/13 10:29:57;;;;;;;1.67;1.58;;;;;;;;;;4954588;28;20019;-85
2023/10/13 10:32:41;;;;;;;6.38;2.15;;;;;;;;;;4946315;28;20098;-85
2023/10/13 10:35:20;;;;;;;2.15;1.85;;;;;;;;;;4947435;28;20071;-85
2023/10/13 10:37:48;;;;;;;3.05;1.70;;;;;;;;;;4954510;28;20027;-86
2023/10/13 10:43:21;;;;;;;2.97;1.60;;;;;;;;;;4951376;29;20522;-85
2023/10/13 10:45:50;;;;;;;2.88;1.80;;;;;;;;;;4957991;28;20035;-87
2023/10/13 10:48:20;;;;;;;7.75;1.80;;;;;;;;;;4963058;28;20513;-85
2023/10/13 10:50:55;;;;;;;3.75;1.50;;;;;;;;;;4952698;28;20023;-85
2023/10/13 10:53:33;;;;;;;3.75;1.80;;;;;;;;;;4953829;28;20024;-85
2023/10/13 10:56:08;;;;;;;5.50;2.03;;;;;;;;;;4957879;28;20568;-85
2023/10/13 10:58:43;;;;;;;3.78;1.55;;;;;;;;;;4956451;28;20497;-85
2023/10/13 11:01:18;;;;;;;5.13;1.95;;;;;;;;;;4953349;28;20046;-85
2023/10/13 11:03:59;;;;;;;4.65;1.73;;;;;;;;;;4952002;28;20030;-85
2023/10/13 11:06:27;;;;;;;1.90;1.73;;;;;;;;;;4954544;28;20019;-85
2023/10/13 11:11:52;;;;;;;2.75;1.80;;;;;;;;;;4952329;29;20105;-85
2023/10/13 11:14:25;;;;;;;3.22;1.85;;;;;;;;;;4954863;29;20485;-84
2023/10/13 11:16:54;;;;;;;6.93;1.60;;;;;;;;;;4946996;28;20827;-84
2023/10/13 11:19:35;;;;;;;4.43;1.60;;;;;;;;;;4954800;28;20055;-85
2023/10/13 11:22:42;;;;;;;6.43;1.80;;;;;;;;;;4965949;28;20019;-85
2023/10/13 11:25:59;;;;;;;4.45;1.98;;;;;;;;;;4957539;28;20070;-84
2023/10/13 11:28:58;;;;;;;3.85;1.67;;;;;;;;;;4962187;28;20031;-86
2023/10/13 11:31:24;;;;;;;1.75;1.48;;;;;;;;;;4956500;28;20123;-85
2023/10/13 11:33:50;;;;;;;6.95;2.10;;;;;;;;;;4953467;28;20074;-85
2023/10/13 11:36:24;;;;;;;4.03;1.65;;;;;;;;;;4955827;28;20030;-85
2023/10/13 11:38:51;;;;;;;2.15;1.40;;;;;;;;;;4953388;28;20045;-85
2023/10/13 11:41:20;;;;;;;2.67;1.48;;;;;;;;;;4949383;29;20026;-85
2023/10/13 11:49:17;;;;;;;3.45;1.38;;;;;;;;;;4950553;29;20042;-84
2023/10/13 11:51:47;;;;;;;3.65;1.73;;;;;;;;;;4949247;29;20056;-84
2023/10/13 11:54:17;;;;;;;5.35;1.95;;;;;;;;;;4957173;28;20034;-85
2023/10/13 11:56:43;;;;;;;3.40;1.70;;;;;;;;;;4963785;28;20062;-85
2023/10/13 11:59:17;;;;;;;2.90;1.90;;;;;;;;;;4951673;28;20139;-84
2023/10/13 12:05:11;;;;;;;5.90;1.98;;;;;;;;;;4960822;28;20514;-84
2023/10/13 12:07:17;;;;;;;4.05;1.85;;;;;;;;;;4956497;28;20042;-84
2023/10/13 12:12:28;;;;;;;3.80;2.08;;;;;;;;;;4957013;28;20089;-83
2023/10/13 12:14:55;;;;;;;2.67;1.40;;;;;;;;;;4962842;28;20023;-85
2023/10/13 12:17:36;;;;;;;2.13;1.50;;;;;;;;;;4948772;28;20401;-85
2023/10/13 12:20:09;;;;;;;4.97;2.40;;;;;;;;;;4971052;28;20448;-84
2023/10/13 12:22:51;;;;;;;5.93;1.70;;;;;;;;;;4971018;28;20031;-85
2023/10/13 12:25:44;;;;;;;5.35;2.03;;;;;;;;;;4966452;28;20094;-86
2023/10/13 12:28:18;;;;;;;4.80;1.63;;;;;;;;;;4966527;28;20019;-85
2023/10/13 12:30:51;;;;;;;3.83;1.83;;;;;;;;;;4952470;28;20106;-84
2023/10/13 12:33:24;;;;;;;2.08;1.63;;;;;;;;;;4971127;28;20672;-85
2023/10/13 12:36:09;;;;;;;2.95;1.70;;;;;;;;;;4961788;28;20023;-85
2023/10/13 12:38:37;;;;;;;5.68;1.80;;;;;;;;;;4948600;28;20035;-84
2023/10/13 12:52:01;;;;;;;2.30;1.63;;;;;;;;;;4951700;29;20110;-84
2023/10/13 12:54:35;;;;;;;3.92;1.60;;;;;;;;;;4952456;28;20450;-86
2023/10/13 12:57:00;;;;;;;5.55;1.85;;;;;;;;;;4957310;28;20036;-84
2023/10/13 12:59:28;;;;;;;4.50;1.85;;;;;;;;;;4971602;28;20027;-84
2023/10/13 13:01:54;;;;;;;3.58;2.00;;;;;;;;;;4956717;28;20510;-84
2023/10/13 13:04:20;;;;;;;6.35;1.88;;;;;;;;;;4951609;28;20031;-84
2023/10/13 13:06:50;;;;;;;4.40;1.92;;;;;;;;;;4946429;29;20023;-86
2023/10/13 13:09:15;;;;;;;5.32;2.08;;;;;;;;;;4943693;28;20016;-85
2023/10/13 13:11:41;;;;;;;4.20;1.60;;;;;;;;;;4954252;29;20033;-84
2023/10/13 13:14:10;;;;;;;2.65;1.88;;;;;;;;;;4954461;28;20038;-84
2023/10/13 13:16:38;;;;;;;4.65;1.80;;;;;;;;;;4953441;28;20030;-84
2023/10/13 13:19:10;;;;;;;2.58;1.70;;;;;;;;;;4949333;28;20511;-84
2023/10/13 13:21:38;;;;;;;2.10;1.90;;;;;;;;;;4944216;28;20375;-84
2023/10/13 13:24:10;;;;;;;2.67;1.70;;;;;;;;;;4945659;29;20023;-84
2023/10/13 13:26:36;;;;;;;2.78;1.70;;;;;;;;;;4956894;28;20553;-85
2023/10/13 13:29:01;;;;;;;3.80;2.15;;;;;;;;;;4963171;28;20054;-84
2023/10/13 13:31:29;;;;;;;4.68;1.50;;;;;;;;;;4973649;28;20381;-85
2023/10/13 13:33:55;;;;;;;4.03;1.80;;;;;;;;;;4954692;28;20469;-84
2023/10/13 13:36:22;;;;;;;5.50;1.67;;;;;;;;;;4950626;29;20118;-84
2023/10/13 13:38:50;;;;;;;3.60;1.75;;;;;;;;;;4955660;28;20035;-84
2023/10/13 13:41:16;;;;;;;2.17;1.27;;;;;;;;;;4949451;29;20051;-85
2023/10/13 13:43:55;;;;;;;4.43;2.35;;;;;;;;;;4957100;28;20042;-86
2023/10/13 13:46:24;;;;;;;5.13;1.70;;;;;;;;;;4968051;28;20062;-84
2023/10/13 13:48:51;;;;;;;3.38;1.80;;;;;;;;;;4970920;28;20031;-84
2023/10/13 13:51:26;;;;;;;3.97;1.92;;;;;;;;;;4958697;28;20051;-85
2023/10/13 13:53:52;;;;;;;1.95;1.60;;;;;;;;;;4972413;28;20055;-86
2023/10/13 13:56:18;;;;;;;5.18;2.03;;;;;;;;;;4960834;28;20026;-84
2023/10/13 13:58:49;;;;;;;4.65;1.65;;;;;;;;;;4959746;28;20032;-86
2023/10/13 14:01:15;;;;;;;;;;;;;;;;;;4955904;28;20051;-86
2023/10/13 14:03:45;;;;;;;4.43;2.35;;;;;;;;;;4971226;28;19970;-84
2023/10/13 14:06:18;;;;;;;5.55;2.35;;;;;;;;;;4948482;29;20027;-84
2023/10/13 14:08:51;;;;;;;3.05;1.75;;;;;;;;;;4955950;28;20038;-85
2023/10/13 14:11:22;;;;;;;4.38;1.90;;;;;;;;;;4951483;28;20075;-84
2023/10/13 14:13:55;;;;;;;2.78;1.75;;;;;;;;;;4969380;28;20054;-84
2023/10/13 14:16:22;;;;;;;2.83;1.40;;;;;;;;;;4971604;28;20022;-85
2023/10/13 14:18:49;;;;;;;3.90;1.65;;;;;;;;;;4968496;28;20027;-84
2023/10/13 14:21:18;;;;;;;2.90;1.70;;;;;;;;;;4964199;28;20020;-85
2023/10/13 14:23:48;;;;;;;5.70;1.75;;;;;;;;;;4960390;28;20059;-84
2023/10/13 14:26:21;;;;;;;3.67;1.75;;;;;;;;;;4947598;29;20026;-84
2023/10/13 14:31:32;;;;;;;3.40;1.60;;;;;;;;;;4948364;28;20030;-84
2023/10/13 14:33:58;;;;;;;3.75;2.13;;;;;;;;;;4957292;28;20449;-84
2023/10/13 14:36:28;;;;;;;4.70;1.90;;;;;;;;;;4954236;28;20466;-85
2023/10/13 14:38:57;;;;;;;4.05;1.98;;;;;;;;;;4953173;28;20058;-88
2023/10/13 14:41:22;;;;;;;4.82;1.70;;;;;;;;;;4959465;28;20070;-86
2023/10/13 14:43:47;;;;;;;5.90;1.50;;;;;;;;;;4943297;29;20050;-84
2023/10/13 14:46:17;;;;;;;4.40;1.60;;;;;;;;;;4948237;28;20032;-85
2023/10/13 14:48:43;;;;;;;3.42;1.73;;;;;;;;;;4950639;29;20421;-84
2023/10/13 14:51:18;;;;;;;4.03;1.58;;;;;;;;;;4953680;28;20114;-84
2023/10/13 14:53:44;;;;;;;2.30;1.70;;;;;;;;;;4954245;28;20052;-84
2023/10/13 14:56:13;;;;;;;2.55;1.85;;;;;;;;;;4970888;28;20089;-84
2023/10/13 14:58:42;;;;;;;6.22;2.10;;;;;;;;;;4958430;28;20031;-85
2023/10/13 15:01:18;;;;;;;2.50;1.58;;;;;;;;;;4972756;28;20023;-84
2023/10/13 15:03:45;;;;;;;7.10;2.00;;;;;;;;;;4957172;29;20035;-86
2023/10/13 15:06:24;;;;;;;3.15;1.60;;;;;;;;;;4957342;28;20089;-85
2023/10/13 15:08:51;;;;;;;3.20;1.80;;;;;;;;;;4972584;28;20408;-84
2023/10/13 15:11:19;;;;;;;4.22;2.00;;;;;;;;;;4939143;29;20410;-84
2023/10/13 15:13:44;;;;;;;7.43;1.40;;;;;;;;;;4968730;28;20678;-85
2023/10/13 15:16:17;;;;;;;2.95;1.80;;;;;;;;;;4958023;28;20031;-85
2023/10/13 15:18:53;;;;;;;3.15;1.58;;;;;;;;;;4973679;28;20037;-86
2023/10/13 15:21:21;;;;;;;3.58;1.75;;;;;;;;;;4950871;29;20023;-84
2023/10/13 15:23:47;;;;;;;5.15;1.50;;;;;;;;;;4949921;28;20051;-85
2023/10/13 15:26:15;;;;;;;8.60;1.80;;;;;;;;;;4971949;28;20043;-85
2023/10/13 15:28:48;;;;;;;2.58;1.38;;;;;;;;;;4967539;28;20054;-85
2023/10/13 15:31:25;;;;;;;5.78;2.05;;;;;;;;;;4957217;28;20490;-84
2023/10/13 15:33:55;;;;;;;10.02;4.35;;;;;;;;;;4948364;28;20505;-83
2023/10/13 15:36:24;;;;;;;15.45;6.35;;;;;;;;;;4949006;29;20030;-83
2023/10/13 15:38:53;;;;;;;9.93;4.35;;;;;;;;;;4975988;28;20062;-82
2023/10/13 15:41:23;;;;;;;4.47;2.22;;;;;;;;;;4948416;29;20090;-83
2023/10/13 15:43:49;;;;;;;4.13;2.15;;;;;;;;;;4955634;28;20027;-83
2023/10/13 15:46:20;;;;;;;2.33;1.77;;;;;;;;;;4947066;28;20027;-84
2023/10/13 15:48:46;;;;;;;4.55;2.00;;;;;;;;;;4960177;28;20023;-83
2023/10/13 15:51:12;;;;;;;4.30;2.15;;;;;;;;;;4956938;28;20117;-82
2023/10/13 15:53:38;;;;;;;2.33;1.50;;;;;;;;;;4960382;28;20050;-83
2023/10/13 15:56:11;;;;;;;4.15;1.90;;;;;;;;;;4967132;28;20098;-86
2023/10/13 15:58:40;;;;;;;5.00;2.15;;;;;;;;;;4972609;28;20050;-85
2023/10/13 16:01:09;;;;;;;7.28;2.28;;;;;;;;;;4946831;28;20055;-86
2023/10/13 16:03:34;;;;;;;6.53;1.73;;;;;;;;;;4970332;28;20094;-83
2023/10/13 16:06:04;;;;;;;4.28;1.85;;;;;;;;;;4961061;28;20123;-84
2023/10/13 16:08:31;;;;;;;7.03;2.20;;;;;;;;;;4946537;28;20505;-83
2023/10/13 16:11:07;;;;;;;4.90;2.00;;;;;;;;;;4947404;28;20024;-84
2023/10/13 16:13:35;;;;;;;2.63;2.10;;;;;;;;;;4950467;28;20019;-84
2023/10/13 16:16:02;;;;;;;5.53;1.95;;;;;;;;;;4947025;29;20038;-83
2023/10/13 16:18:29;;;;;;;4.75;2.35;;;;;;;;;;4961687;28;20027;-83
2023/10/13 16:20:55;;;;;;;5.03;2.47;;;;;;;;;;4954541;28;20540;-83
2023/10/13 16:23:20;;;;;;;2.65;1.83;;;;;;;;;;4951763;28;20035;-86
2023/10/13 16:25:46;;;;;;;4.32;2.08;;;;;;;;;;4955082;28;20074;-83
2023/10/13 16:28:14;;;;;;;5.63;2.17;;;;;;;;;;4948237;28;20130;-85
2023/10/13 16:30:39;;;;;;;3.45;1.95;;;;;;;;;;4945883;29;20474;-83
2023/10/13 16:33:05;;;;;;;2.15;1.40;;;;;;;;;;4955916;28;20099;-84
2023/10/13 16:35:33;;;;;;;3.80;1.70;;;;;;;;;;4956294;28;20051;-84
2023/10/13 16:38:03;;;;;;;3.40;1.60;;;;;;;;;;4971434;28;20030;-85
2023/10/13 16:40:32;;;;;;;5.63;2.28;;;;;;;;;;4961605;28;20075;-84
2023/10/13 16:42:57;;;;;;;9.00;4.05;;;;;;;;;;4954779;28;20027;-84
2023/10/13 16:45:23;;;;;;;6.55;2.22;;;;;;;;;;4946917;29;20055;-85
2023/10/13 16:47:49;;;;;;;4.75;2.08;;;;;;;;;;4952845;28;20100;-83
2023/10/13 16:50:18;;;;;;;3.55;2.10;;;;;;;;;;4954990;28;20115;-85
2023/10/13 16:52:47;;;;;;;13.07;2.53;;;;;;;;;;4955162;28;20114;-84
2023/10/13 16:55:17;;;;;;;4.75;2.13;;;;;;;;;;4955098;28;20023;-84
2023/10/13 16:57:43;;;;;;;5.82;2.00;;;;;;;;;;4948984;28;20058;-84
2023/10/13 17:00:11;;;;;;;4.13;1.77;;;;;;;;;;4952615;28;20035;-83
2023/10/13 17:02:41;;;;;;;2.72;1.60;;;;;;;;;;4962986;28;20575;-85
2023/10/13 17:05:12;;;;;;;3.58;2.03;;;;;;;;;;4945939;28;20078;-84
2023/10/13 17:07:38;;;;;;;6.95;2.33;;;;;;;;;;4943303;28;20032;-85
2023/10/13 17:10:04;;;;;;;4.72;2.03;;;;;;;;;;4935174;28;20035;-84
2023/10/13 17:12:33;;;;;;;6.45;1.90;;;;;;;;;;4935647;29;20031;-85
2023/10/13 17:15:03;;;;;;;7.00;2.38;;;;;;;;;;4934729;29;20453;-84
2023/10/13 17:17:28;;;;;;;4.47;1.75;;;;;;;;;;4937583;28;20526;-84
2023/10/13 17:19:54;;;;;;;3.63;1.70;;;;;;;;;;4947664;28;20122;-84
2023/10/13 17:22:22;;;;;;;2.20;1.33;;;;;;;;;;4950564;28;20036;-86
2023/10/13 17:24:48;;;;;;;3.22;1.58;;;;;;;;;;4947913;29;20032;-84
2023/10/13 17:27:13;;;;;;;4.72;1.63;;;;;;;;;;4952443;28;20027;-85
2023/10/13 17:29:40;;;;;;;3.50;1.77;;;;;;;;;;4948091;28;20053;-84
2023/10/13 17:32:08;;;;;;;6.40;2.20;;;;;;;;;;4947925;28;20023;-85
2023/10/13 17:34:33;;;;;;;2.75;1.38;;;;;;;;;;4961419;28;20051;-83
2023/10/13 17:37:00;;;;;;;2.60;1.45;;;;;;;;;;4964786;28;20066;-85
2023/10/13 17:39:26;;;;;;;3.67;1.67;;;;;;;;;;4943675;28;20496;-85
2023/10/13 17:41:51;;;;;;;6.72;1.83;;;;;;;;;;4963035;28;20039;-85
2023/10/13 17:44:17;;;;;;;2.50;1.67;;;;;;;;;;4958107;28;20077;-84
2023/10/13 17:46:42;;;;;;;3.25;1.65;;;;;;;;;;4948997;28;20034;-85
2023/10/13 17:49:08;;;;;;;4.32;1.70;;;;;;;;;;4969733;28;20026;-84
2023/10/13 17:51:33;;;;;;;3.72;2.15;;;;;;;;;;4967120;28;20637;-83
2023/10/13 17:53:59;;;;;;;3.17;1.80;;;;;;;;;;4946811;28;20105;-84
2023/10/13 17:56:24;;;;;;;3.72;1.60;;;;;;;;;;4954705;28;20023;-85
2023/10/13 17:58:51;;;;;;;4.10;1.85;;;;;;;;;;4953880;28;20045;-84
2023/10/13 18:01:17;;;;;;;4.03;2.13;;;;;;;;;;4955464;28;20098;-84
2023/10/13 18:03:49;;;;;;;2.55;1.67;;;;;;;;;;4954596;28;20023;-84
2023/10/13 18:06:20;;;;;;;2.65;1.88;;;;;;;;;;4950036;28;20027;-85
2023/10/13 18:08:46;;;;;;;4.15;1.83;;;;;;;;;;4959974;28;20791;-84
2023/10/13 18:11:13;;;;;;;2.30;1.70;;;;;;;;;;4959377;28;20053;-85
2023/10/13 18:13:39;;;;;;;5.03;1.88;;;;;;;;;;4947311;28;20414;-85
2023/10/13 18:16:31;;;;;;;1.88;1.42;;;;;;;;;;4950829;28;20019;-84
2023/10/13 18:18:58;;;;;;;;;;;;;;;;;;4952899;28;20049;-85
2023/10/13 18:21:24;;;;;;;5.85;2.60;;;;;;;;;;4955446;28;19911;-86